首页
METAR-TAF:

METAR-TAF

机场 :

杰克逊, 田纳西州, 美国

纬度: 35-35-35N, 经度: 088-55-00W, 海拔: 132米

当前天气观测

该预报发布于1小时和10分钟前的05:53 UTC
风速7节,风向
温度 13°C
湿度 82%
气压 1018 hPa
能見度: 16.1公里
多云层高于9500英尺

METAR: KMKL 050553Z AUTO 35007KT 10SM BKN095 13/10 A3005 RMK AO2 SLP172 T01280100 10189 20128 402280100 51003

时间: 02:03 (07:03 UTC)

预报

该预报发布于1小时和43分钟前的05:20 UTC
预报有效从05日的 06点(UTC)到 06日的 06点(UTC)
风速5节,风向
能見度: 10公里
多云层高于20000英尺
从 05日的 0800点(UTC)
风速3节,风向
能見度: 9.7公里
多云层高于7000英尺
轻雾
短暂存在
从 05日的 08点(UTC)到 05日的 12点(UTC)
能見度: 4.8公里
少量云层高于2000英尺
多云层高于7000英尺
轻雾
从 05日的 1600点(UTC)
风速6节,风向北转西北
能見度: 10公里
散云层高于4000英尺
散云层高于25000英尺
从 06日的 0000点(UTC)
风速3节,风向多变
能見度: 10公里
散云层高于25000英尺

TAF: KMKL 050520Z 0506/0606 36005KT P6SM BKN200 FM050800 01003KT 6SM BR BKN070 TEMPO 0508/0512 3SM BR FEW020 BKN070 FM051600 34006KT P6SM SCT040 SCT250 FM060000 VRB03KT P6SM SCT250

超过4000个机场的气象观测和天气预报(METAR&TAF报告)。

可查询的气象台以黄色和红色小点在地图上表示。

将鼠标移到小点上方,可查看气象台名称。

然后点击查看天气观测和预报。

如需切换地图:点击带黑十字的绿色按钮放大地图;点击带横线的绿色按钮缩小地图;或者点击绿色箭头查看邻近地区的地图。


METAR-TAF: